Latest Weather Observations for Rockhampton

IDQ60801

Issued at 8:32 am EST Sunday 19 May 2024 (issued every 10 minutes, with the page automatically refreshed every 10 minutes)

About weather observations | Map of weather stations | Latest weather observations for QLD | Other Formats
Station Details ID: 039083 Name: ROCKHAMPTON AERO Lat: -23.38 Lon: 150.48 Height: 10.4 m
Data from the previous 72 hours. | See also: Recent months at Rockhampton
Date/Time
EST
Temp
°C
App
Temp
°C
Dew
Point
°C
Rel
Hum
%
Delta-T
°C
Wind Press
QNH
hPa
Press
MSL
hPa
Rain since
9am
mm
Dir  Spd
km/h
Gust
km/h
Spd
kts
Gust
kts
19/08:00am 13.6 8.2 2.5 47 4.9 WSW 20 26 11 14 1018.3 1018.2 0.0
19/07:30am 12.6 8.9 2.5 50 4.4 WSW 11 19 6 10 1018.6 1018.5 0.0
19/07:00am 11.3 7.2 2.1 53 3.9 SW 13 17 7 9 1018.3 1018.2 0.0
19/06:30am 12.4 6.8 1.4 47 4.7 SW 20 24 11 13 1018.0 1017.9 0.0
19/06:00am 12.5 7.1 1.5 47 4.7 SW 19 24 10 13 1017.5 1017.4 0.0
19/05:30am 12.0 7.1 1.9 50 4.3 SW 17 22 9 12 1017.1 1017.0 0.0
19/05:00am 12.6 9.2 1.6 47 4.7 S 9 13 5 7 1017.0 1016.9 0.0
19/04:30am 12.6 8.8 1.6 47 4.7 SW 11 13 6 7 1016.9 1016.8 0.0
19/04:00am 13.6 9.8 1.6 44 5.2 SSW 11 15 6 8 1016.9 1016.8 0.0
19/03:30am 15.0 9.0 1.2 39 6.0 SSW 22 33 12 18 1016.7 1016.6 0.0
19/03:00am 15.2 9.8 2.7 43 5.6 SSW 20 28 11 15 1016.6 1016.5 0.0
19/02:30am 15.3 10.3 3.5 45 5.4 SW 19 22 10 12 1016.4 1016.3 0.0
19/02:00am 16.3 11.4 4.0 44 5.7 SSW 19 24 10 13 1016.2 1016.1 0.0
19/01:30am 16.6 12.1 4.3 44 5.8 SW 17 24 9 13 1016.2 1016.1 0.0
19/01:00am 17.6 13.2 4.6 42 6.2 SSW 17 20 9 11 1016.2 1016.1 0.0
19/12:30am 18.3 14.2 4.5 40 6.6 SSW 15 20 8 11 1016.2 1016.1 0.0
19/12:00am 18.6 14.9 4.4 39 6.8 SSW 13 20 7 11 1016.4 1016.3 0.0
 
Date/Time
EST
Temp
°C
App
Temp
°C
Dew
Point
°C
Rel
Hum
%
Delta-T
°C
Wind Press
QNH
hPa
Press
MSL
hPa
Rain since
9am
mm
Dir  Spd
km/h
Gust
km/h
Spd
kts
Gust
kts
18/11:30pm 20.6 14.8 4.2 34 7.9 SSW 24 35 13 19 1016.4 1016.3 0.0
18/11:00pm 19.0 14.9 4.4 38 7.0 SSW 15 20 8 11 1016.5 1016.4 0.0
18/10:30pm 18.5 14.7 3.9 38 6.9 SSW 13 15 7 8 1016.6 1016.5 0.0
18/10:00pm 19.6 15.8 3.7 35 7.5 SSW 13 20 7 11 1016.6 1016.5 0.0
18/09:30pm 19.6 15.8 4.1 36 7.4 SSW 13 17 7 9 1016.6 1016.5 0.0
18/09:00pm 21.3 16.9 4.8 34 8.1 SSW 17 22 9 12 1016.4 1016.3 0.0
18/08:30pm 21.8 17.5 7.2 39 7.5 SSW 19 22 10 12 1016.2 1016.1 0.0
18/08:00pm 21.8 18.3 8.7 43 6.9 SSW 17 26 9 14 1015.8 1015.7 0.0
18/07:30pm 22.2 19.1 8.7 42 7.2 SSW 15 20 8 11 1015.6 1015.5 0.0
18/07:00pm 22.2 19.4 8.7 42 7.2 SSW 13 17 7 9 1015.1 1015.0 0.0
18/06:30pm 22.4 20.1 8.9 42 7.2 SW 11 15 6 8 1014.6 1014.5 0.0
18/06:00pm 23.3 20.4 8.2 38 8.0 SSW 13 15 7 8 1014.3 1014.2 0.0
18/05:30pm 24.6 20.9 8.1 35 8.8 SSW 17 24 9 13 1013.9 1013.8 0.0
18/05:00pm 25.8 21.9 8.8 34 9.2 SSW 19 24 10 13 1013.6 1013.5 0.0
18/04:30pm 27.1 23.7 9.0 32 9.9 SSW 17 22 9 12 1013.3 1013.2 0.0
18/04:00pm 27.0 23.4 8.4 31 10.1 SW 17 26 9 14 1013.1 1013.0 0.0
18/03:30pm 27.8 25.4 10.1 33 9.9 S 13 17 7 9 1013.2 1013.1 0.0
18/03:00pm 26.8 24.0 8.7 32 9.9 S 13 20 7 11 1013.3 1013.2 0.0
18/02:30pm 27.3 24.9 10.1 34 9.6 SSW 13 22 7 12 1013.4 1013.3 0.0
18/02:00pm 27.4 24.5 11.0 36 9.3 SSE 17 22 9 12 1013.5 1013.4 0.0
18/01:30pm 26.5 23.3 9.8 35 9.2 S 17 24 9 13 1014.0 1013.9 0.0
18/01:00pm 26.3 23.0 9.6 35 9.2 S 17 26 9 14 1014.5 1014.4 0.0
18/12:30pm 26.3 23.3 10.5 37 8.8 SSE 17 24 9 13 1015.0 1014.9 0.0
18/12:00pm 25.8 22.4 10.4 38 8.6 SSW 19 30 10 16 1015.7 1015.6 0.0
18/11:30am 25.3 21.9 11.1 41 8.0 S 20 30 11 16 1016.3 1016.2 0.0
18/11:00am 24.5 21.5 11.8 45 7.2 SSW 19 26 10 14 1016.8 1016.7 0.0
18/10:30am 24.0 21.1 12.9 50 6.4 SSW 20 28 11 15 1017.5 1017.4 0.0
18/10:00am 23.2 20.1 13.4 54 5.7 SSW 22 30 12 16 1017.9 1017.8 0.0
18/09:30am 22.1 19.4 13.5 58 5.0 SW 20 28 11 15 1018.3 1018.2 0.0
18/09:00am 20.7 18.7 13.9 65 3.9 SW 17 22 9 12 1018.3 1018.2 0.0
18/08:30am 19.1 17.6 14.1 73 2.9 SSW 15 17 8 9 1018.0 1017.9 0.0
18/08:00am 17.0 16.5 13.7 81 1.9 SW 9 9 5 5 1017.9 1017.8 0.0
18/07:30am 15.7 15.4 13.2 85 1.4 WSW 7 11 4 6 1017.9 1017.8 0.0
18/07:00am 14.5 14.2 12.7 89 1.0 WSW 6 7 3 4 1017.8 1017.7 0.0
18/06:30am 14.1 14.9 12.5 90 0.9 CALM 0 2 0 1 1017.8 1017.7 0.0
18/06:00am 14.5 15.1 13.2 92 0.7 S 2 6 1 3 1017.5 1017.4 0.0
18/05:30am 14.4 15.4 13.1 92 0.7 CALM 0 6 0 3 1017.2 1017.1 0.0
18/05:00am 14.4 14.2 13.1 92 0.7 WSW 6 7 3 4 1017.0 1016.9 0.0
18/04:30am 14.2 14.3 12.8 91 0.8 WSW 4 7 2 4 1016.9 1016.8 0.0
18/04:00am 14.7 15.8 13.6 93 0.6 CALM 0 0 0 0 1016.8 1016.7 0.0
18/03:39am 14.4 15.4 13.1 92 0.7 CALM 0 6 0 3 1016.8 1016.7 0.0
18/03:30am 14.5 15.1 13.2 92 0.7 S 2 6 1 3 1016.8 1016.7 0.0
18/03:09am 16.0 17.6 14.9 93 0.6 CALM 0 0 0 0 1016.9 1016.8 0.0
18/03:00am 15.7 17.2 14.6 93 0.6 CALM 0 0 0 0 1017.0 1016.9 0.0
18/02:53am 16.0 17.6 14.9 93 0.6 CALM 0 0 0 0 1017.0 1016.9 0.0
18/02:30am 16.1 15.9 14.8 92 0.7 S 9 11 5 6 1017.1 1017.0 0.0
18/02:00am 16.4 16.7 14.9 91 0.9 S 7 9 4 5 1017.4 1017.3 0.0
18/01:30am 16.3 16.6 15.0 92 0.8 S 7 9 4 5 1017.6 1017.5 0.0
18/01:00am 16.1 16.8 14.6 91 0.9 SSW 4 9 2 5 1017.9 1017.8 0.0
18/12:30am 16.3 17.7 14.5 89 1.0 CALM 0 0 0 0 1017.9 1017.8 0.0
18/12:00am 16.5 17.3 14.9 90 0.9 SSE 4 6 2 3 1018.1 1018.0 0.0
 
Date/Time
EST
Temp
°C
App
Temp
°C
Dew
Point
°C
Rel
Hum
%
Delta-T
°C
Wind Press
QNH
hPa
Press
MSL
hPa
Rain since
9am
mm
Dir  Spd
km/h
Gust
km/h
Spd
kts
Gust
kts
17/11:30pm 16.4 17.7 14.2 87 1.3 CALM 0 0 0 0 1018.6 1018.5 0.0
17/11:00pm 17.2 18.8 15.0 87 1.3 CALM 0 0 0 0 1018.7 1018.6 0.0
17/10:30pm 18.1 20.0 15.7 86 1.4 CALM 0 0 0 0 1018.8 1018.7 0.0
17/10:00pm 18.3 19.7 15.4 83 1.7 SSE 2 9 1 5 1018.9 1018.8 0.0
17/09:30pm 18.7 19.5 15.8 83 1.7 SW 6 9 3 5 1018.9 1018.8 0.0
17/09:00pm 19.2 20.8 15.9 81 2.0 WSW 2 6 1 3 1019.1 1019.0 0.0
17/08:30pm 19.8 20.6 15.9 78 2.3 S 6 9 3 5 1019.0 1018.9 0.0
17/08:00pm 19.6 20.1 15.5 77 2.4 SSW 7 11 4 6 1018.9 1018.8 0.0
17/07:30pm 20.2 20.9 15.6 75 2.7 WSW 6 9 3 5 1018.5 1018.4 0.0
17/07:00pm 20.9 21.5 15.9 73 3.0 SW 7 7 4 4 1018.5 1018.4 0.0
17/06:30pm 21.4 23.2 15.5 69 3.5 CALM 0 0 0 0 1018.1 1018.0 0.0
17/06:00pm 22.0 22.7 15.6 67 3.8 NNE 6 7 3 4 1017.8 1017.7 0.0
17/05:30pm 22.3 22.0 15.4 65 4.1 NNE 11 13 6 7 1017.4 1017.3 0.0
17/05:00pm 24.4 24.4 15.3 57 5.5 ENE 9 15 5 8 1017.1 1017.0 0.0
17/04:30pm 25.4 25.0 14.2 50 6.6 ENE 9 13 5 7 1016.9 1016.8 0.0
17/04:00pm 26.3 25.6 13.1 44 7.7 ESE 9 13 5 7 1016.9 1016.8 0.0
17/03:30pm 26.5 24.9 12.9 43 7.9 SE 13 19 7 10 1016.9 1016.8 0.0
17/03:00pm 26.4 25.2 12.8 43 7.9 SE 11 19 6 10 1017.0 1016.9 0.0
17/02:30pm 26.4 25.0 13.5 45 7.6 ESE 13 19 7 10 1017.1 1017.0 0.0
17/02:00pm 26.5 26.0 13.9 45 7.5 E 9 19 5 10 1017.2 1017.1 0.0
17/01:30pm 26.2 25.1 14.3 48 7.1 SE 13 20 7 11 1017.6 1017.5 0.0
17/01:00pm 25.9 24.6 13.7 47 7.2 ESE 13 20 7 11 1018.0 1017.9 0.0
17/12:30pm 25.3 23.8 14.1 50 6.6 ESE 15 24 8 13 1018.5 1018.4 0.0
17/12:00pm 24.9 23.4 14.1 51 6.4 ESE 15 24 8 13 1019.2 1019.1 0.0
17/11:30am 24.8 22.9 14.3 52 6.2 ESE 17 22 9 12 1019.7 1019.6 0.0
17/11:00am 24.9 24.0 15.8 57 5.5 SE 15 20 8 11 1020.1 1020.0 0.0
17/10:30am 23.6 22.0 14.9 58 5.2 ESE 17 26 9 14 1020.6 1020.5 0.0
17/10:00am 22.9 21.7 15.0 61 4.7 ESE 15 20 8 11 1021.1 1021.0 0.0
17/09:30am 22.0 20.9 15.4 66 3.9 ESE 15 22 8 12 1021.4 1021.3 0.0
17/09:00am 21.2 21.5 16.0 72 3.1 SE 9 13 5 7 1021.5 1021.4 0.0
17/08:30am 19.9 20.3 15.3 75 2.7 SSE 7 11 4 6 1021.5 1021.4 0.0
17/08:00am 19.0 18.9 14.9 77 2.4 SE 9 15 5 8 1021.5 1021.4 0.0
17/07:30am 17.4 17.7 15.0 86 1.4 S 7 9 4 5 1021.3 1021.2 0.0
17/07:00am 16.5 16.7 14.3 87 1.3 SSE 6 7 3 4 1021.0 1020.9 0.0
17/06:30am 16.3 16.7 13.8 85 1.4 SSE 4 7 2 4 1020.7 1020.6 0.0
17/06:00am 17.3 17.5 14.2 82 1.8 SE 6 9 3 5 1020.5 1020.4 0.0
17/05:30am 17.1 16.8 14.4 84 1.5 ESE 9 13 5 7 1020.3 1020.2 0.0
17/05:00am 17.0 17.2 14.3 84 1.5 E 6 9 3 5 1020.1 1020.0 0.0
17/04:30am 17.5 17.7 14.6 83 1.7 SE 7 11 4 6 1019.8 1019.7 0.0
17/04:00am 17.4 17.1 14.5 83 1.7 ESE 9 13 5 7 1019.9 1019.8 0.0
17/03:30am 17.6 17.0 14.5 82 1.8 ESE 11 15 6 8 1020.0 1019.9 0.0
17/03:00am 17.7 17.1 14.6 82 1.8 ESE 11 17 6 9 1020.1 1020.0 0.0
17/02:30am 18.0 17.4 14.5 80 2.0 ESE 11 15 6 8 1020.3 1020.2 0.0
17/02:00am 18.0 17.8 14.7 81 1.9 ESE 9 15 5 8 1020.6 1020.5 0.0
17/01:30am 18.0 17.4 14.7 81 1.9 ESE 11 17 6 9 1021.0 1020.9 0.0
17/01:00am 18.2 17.3 14.9 81 1.9 ESE 13 19 7 10 1021.3 1021.2 0.0
17/12:30am 18.2 17.8 15.1 82 1.8 ESE 11 15 6 8 1021.5 1021.4 0.0
17/12:00am 18.0 17.6 15.3 84 1.6 SE 11 15 6 8 1021.6 1021.5 0.0
 
Date/Time
EST
Temp
°C
App
Temp
°C
Dew
Point
°C
Rel
Hum
%
Delta-T
°C
Wind Press
QNH
hPa
Press
MSL
hPa
Rain since
9am
mm
Dir  Spd
km/h
Gust
km/h
Spd
kts
Gust
kts
16/11:30pm 18.2 18.6 15.3 83 1.7 SE 7 13 4 7 1022.0 1021.9 0.0
16/11:00pm 18.6 18.6 15.3 81 1.9 SE 9 15 5 8 1022.3 1022.2 0.0
16/10:30pm 18.9 19.0 15.6 81 1.9 SE 9 15 5 8 1022.5 1022.4 0.0
16/10:00pm 18.8 18.9 15.5 81 1.9 SE 9 11 5 6 1022.8 1022.7 0.0
16/09:30pm 19.1 19.6 15.6 80 2.1 SE 7 11 4 6 1022.8 1022.7 0.0
16/09:00pm 19.7 19.2 15.8 78 2.3 SE 13 20 7 11 1022.8 1022.7 0.0
16/08:30pm 19.7 20.0 16.0 79 2.2 ESE 9 15 5 8 1022.8 1022.7 0.0
16/08:00pm 20.4 20.4 16.2 77 2.5 ESE 11 19 6 10 1022.7 1022.6 0.0
16/07:30pm 20.7 20.7 16.3 76 2.6 ESE 11 17 6 9 1022.6 1022.5 0.0
16/07:00pm 20.8 20.8 16.2 75 2.8 ESE 11 17 6 9 1022.1 1022.0 0.0
16/06:30pm 21.4 21.5 16.6 74 2.9 ESE 11 17 6 9 1021.7 1021.6 0.0
16/06:00pm 22.0 21.7 16.5 71 3.3 ESE 13 20 7 11 1021.3 1021.2 0.0
16/05:30pm 22.4 22.0 16.2 68 3.8 ESE 13 20 7 11 1021.1 1021.0 0.0
16/05:00pm 23.2 21.7 15.3 61 4.7 ESE 17 28 9 15 1021.0 1020.9 0.0
16/04:30pm 23.2 22.1 16.3 65 4.2 ESE 17 24 9 13 1020.6 1020.5 0.0
16/04:00pm 24.1 22.3 16.1 61 4.9 ESE 20 33 11 18 1020.4 1020.3 0.0
16/03:30pm 25.3 23.7 15.9 56 5.7 E 19 24 10 13 1020.2 1020.1 0.0
16/03:00pm 25.3 23.5 15.6 55 5.9 ESE 19 28 10 15 1020.3 1020.2 0.0
16/02:30pm 24.9 23.1 15.5 56 5.7 ESE 19 26 10 14 1020.5 1020.4 0.0
16/02:00pm 26.6 25.5 15.3 50 6.8 E 15 24 8 13 1020.5 1020.4 0.0
16/01:30pm 25.5 23.3 14.9 52 6.4 ESE 20 30 11 16 1020.6 1020.5 0.0
16/01:00pm 25.6 24.1 16.2 56 5.7 ESE 19 30 10 16 1021.0 1020.9 0.0
16/12:30pm 25.2 23.1 15.2 54 6.0 E 20 30 11 16 1021.3 1021.2 0.0
16/12:00pm 25.6 24.0 15.9 55 5.9 ESE 19 32 10 17 1021.8 1021.7 0.0
16/11:30am 25.0 23.0 15.6 56 5.7 ESE 20 30 11 16 1022.3 1022.2 0.0
16/11:00am 24.2 22.7 16.2 61 4.9 ESE 19 26 10 14 1022.7 1022.6 0.0
16/10:30am 24.3 22.8 16.3 61 4.9 ESE 19 30 10 16 1023.3 1023.2 0.0
16/10:00am 23.2 21.6 16.0 64 4.3 SE 19 32 10 17 1023.6 1023.5 0.0
16/09:30am 23.4 22.4 16.7 66 4.1 SE 17 26 9 14 1023.7 1023.6 0.0
16/09:00am 21.9 20.8 16.4 71 3.3 SE 17 28 9 15 1023.5 1023.4 -

Other formats

Comma delimited format used in spreadsheet applications
http://www.bom.gov.au/fwo/IDQ60801/IDQ60801.94374.axf

JavaScript Object Notation format (JSON) in row-major order
http://www.bom.gov.au/fwo/IDQ60801/IDQ60801.94374.json

Data quality

Most of these data are generated automatically and are frequently updated. Quality checks on data are not normally performed. It is possible for incorrect values to appear. Refer to information at About Latest Weather Observations and please check the disclaimer before using these data.